Time;durP1;ratioP1;P1;durP2;ratioP2;P2;SDS_P1;SDS_P2;PMS_P1;PMS_P2;Temp;Humidity;BMP_temperature;BMP_pressure;BME280_temperature;BME280_humidity;BME280_pressure;Samples;Min_cycle;Max_cycle;Signal;HPM_P1;HPM_P2
2022/05/11 00:00:42;;;;;;;;;;;14.60;99.90;;;;;;5079158;27;36595;-58
2022/05/11 00:03:09;;;;;;;;;;;14.60;99.90;;;;;;5077440;27;39178;-57
2022/05/11 00:05:36;;;;;;;;;;;14.60;99.90;;;;;;5077936;27;37995;-58
2022/05/11 00:08:05;;;;;;;;;;;14.70;99.90;;;;;;5076721;27;36096;-58
2022/05/11 00:10:33;;;;;;;;;;;14.60;99.90;;;;;;5077810;27;36360;-57
2022/05/11 00:13:00;;;;;;;;;;;14.70;99.90;;;;;;5077372;27;38527;-58
2022/05/11 00:15:28;;;;;;;;;;;14.70;99.90;;;;;;5078247;27;38658;-57
2022/05/11 00:17:55;;;;;;;;;;;14.70;99.90;;;;;;5077838;27;35277;-57
2022/05/11 00:20:23;;;;;;;;;;;14.70;99.90;;;;;;5076244;27;39296;-57
2022/05/11 00:22:52;;;;;;;;;;;14.70;99.90;;;;;;5075172;27;39304;-57
2022/05/11 00:25:24;;;;;;;;;;;14.80;99.90;;;;;;5076861;27;37950;-58
2022/05/11 00:27:52;;;;;;;;;;;14.80;99.90;;;;;;5076326;27;36196;-58
2022/05/11 00:30:19;;;;;;;;;;;14.80;99.90;;;;;;5078019;27;37504;-58
2022/05/11 00:32:46;;;;;;;;;;;14.70;99.90;;;;;;5078963;27;38527;-57
2022/05/11 00:35:13;;;;;;;;;;;14.80;99.90;;;;;;5075627;27;38641;-57
2022/05/11 00:37:40;;;;;;;;;;;14.80;99.90;;;;;;5077736;27;37481;-57
2022/05/11 00:40:08;;;;;;;;;;;14.80;99.90;;;;;;5078691;27;37944;-57
2022/05/11 00:42:36;;;;;;;;;;;14.80;99.90;;;;;;5078102;27;38182;-58
2022/05/11 00:45:03;;;;;;;;;;;14.80;99.90;;;;;;5078648;27;38743;-58
2022/05/11 00:47:33;;;;;;;;;;;14.80;99.90;;;;;;5078317;27;37618;-57
2022/05/11 00:50:03;;;;;;;;;;;14.80;99.90;;;;;;5077499;27;37697;-57
2022/05/11 00:52:35;;;;;;;;;;;14.80;99.90;;;;;;5079858;27;37325;-57
2022/05/11 00:55:04;;;;;;;;;;;14.80;99.90;;;;;;5082366;27;36844;-56
2022/05/11 00:57:34;;;;;;;;;;;14.80;99.90;;;;;;5081886;27;37128;-56
2022/05/11 01:00:04;;;;;;;;;;;14.80;99.90;;;;;;5079492;27;38188;-56
2022/05/11 01:02:31;;;;;;;;;;;14.80;99.90;;;;;;5079938;27;36731;-56
2022/05/11 01:05:00;;;;;;;;;;;14.80;99.90;;;;;;5079340;27;37093;-55
2022/05/11 01:07:30;;;;;;;;;;;14.80;99.90;;;;;;5080678;27;35809;-56
2022/05/11 01:09:57;;;;;;;;;;;14.80;99.90;;;;;;5079882;27;39021;-55
2022/05/11 01:12:29;;;;;;;;;;;14.80;99.90;;;;;;5078706;27;37720;-56
2022/05/11 01:15:00;;;;;;;;;;;14.80;99.90;;;;;;5080657;27;37197;-56
2022/05/11 01:17:29;;;;;;;;;;;14.80;99.90;;;;;;5078929;27;37271;-56
2022/05/11 01:19:56;;;;;;;;;;;14.80;99.90;;;;;;5079874;27;37964;-56
2022/05/11 01:22:27;;;;;;;;;;;14.80;99.90;;;;;;5078820;27;39400;-56
2022/05/11 01:24:56;;;;;;;;;;;14.80;99.90;;;;;;5080709;27;38599;-56
2022/05/11 01:27:25;;;;;;;;;;;14.70;99.90;;;;;;5079360;27;37201;-56
2022/05/11 01:29:53;;;;;;;;;;;14.70;99.90;;;;;;5079468;27;38394;-57
2022/05/11 01:32:20;;;;;;;;;;;14.70;99.90;;;;;;5080403;27;38209;-58
2022/05/11 01:34:47;;;;;;;;;;;14.80;99.90;;;;;;5078991;27;36199;-57
2022/05/11 01:37:15;;;;;;;;;;;14.70;99.90;;;;;;5079175;27;36301;-57
2022/05/11 01:39:44;;;;;;;;;;;14.80;99.90;;;;;;5079674;27;38772;-58
2022/05/11 01:42:13;;;;;;;;;;;14.80;99.90;;;;;;5080089;27;37801;-57
2022/05/11 01:44:40;;;;;;;;;;;14.80;99.90;;;;;;5080240;27;37369;-58
2022/05/11 01:47:08;;;;;;;;;;;14.70;99.90;;;;;;5078943;27;38410;-57
2022/05/11 01:49:35;;;;;;;;;;;14.80;99.90;;;;;;5079688;27;37421;-58
2022/05/11 01:52:02;;;;;;;;;;;14.80;99.90;;;;;;5079993;27;38801;-57
2022/05/11 01:54:29;;;;;;;;;;;14.80;99.90;;;;;;5078775;27;36036;-58
2022/05/11 01:56:56;;;;;;;;;;;14.80;99.90;;;;;;5079811;27;36463;-58
2022/05/11 01:59:24;;;;;;;;;;;14.70;99.90;;;;;;5079063;27;36560;-57
2022/05/11 02:01:51;;;;;;;;;;;14.80;99.90;;;;;;5078799;27;37628;-57
2022/05/11 02:09:49;;;;;;;;;;;14.70;99.90;;;;;;5080333;27;40367;-56
2022/05/11 02:12:16;;;;;;;;;;;14.80;99.90;;;;;;5079212;27;38480;-56
2022/05/11 02:14:45;;;;;;;;;;;14.70;99.90;;;;;;5078899;27;37351;-56
2022/05/11 02:17:13;;;;;;;;;;;14.80;99.90;;;;;;5079130;27;35283;-56
2022/05/11 02:19:42;;;;;;;;;;;14.70;99.90;;;;;;5079304;27;30945;-56
2022/05/11 02:22:09;;;;;;;;;;;14.70;99.90;;;;;;5080822;27;38346;-55
2022/05/11 02:24:36;;;;;;;;;;;14.70;99.90;;;;;;5078925;27;38442;-56
2022/05/11 02:27:03;;;;;;;;;;;14.70;99.90;;;;;;5079495;27;36052;-56
2022/05/11 02:29:30;;;;;;;;;;;14.70;99.90;;;;;;5078215;27;38351;-55
2022/05/11 02:31:58;;;;;;;;;;;14.70;99.90;;;;;;5079252;27;36870;-56
2022/05/11 02:37:10;;;;;;;;;;;14.70;99.90;;;;;;5078540;27;36405;-56
2022/05/11 02:39:37;;;;;;;;;;;14.70;99.90;;;;;;5078587;27;38689;-56
2022/05/11 02:42:04;;;;;;;;;;;14.70;99.90;;;;;;5079503;27;36751;-56
2022/05/11 02:44:31;;;;;;;;;;;14.70;99.90;;;;;;5078927;27;36684;-56
2022/05/11 02:47:00;;;;;;;;;;;14.70;99.90;;;;;;5076646;27;37832;-56
2022/05/11 02:49:27;;;;;;;;;;;14.70;99.90;;;;;;5077701;27;37559;-56
2022/05/11 02:51:54;;;;;;;;;;;14.60;99.90;;;;;;5079692;27;37173;-56
2022/05/11 02:54:21;;;;;;;;;;;14.60;99.90;;;;;;5078905;27;37306;-56
2022/05/11 02:56:48;;;;;;;;;;;14.60;99.90;;;;;;5077729;27;37288;-55
2022/05/11 02:59:15;;;;;;;;;;;14.70;99.90;;;;;;5077564;27;37915;-56
2022/05/11 03:01:42;;;;;;;;;;;14.60;99.90;;;;;;5077867;27;38823;-56
2022/05/11 03:04:10;;;;;;;;;;;14.60;99.90;;;;;;5077631;27;37881;-56
2022/05/11 03:06:38;;;;;;;;;;;14.60;99.90;;;;;;5077984;27;37020;-56
2022/05/11 03:09:05;;;;;;;;;;;14.60;99.90;;;;;;5078593;27;36256;-56
2022/05/11 03:11:32;;;;;;;;;;;14.60;99.90;;;;;;5078080;27;38327;-56
2022/05/11 03:13:59;;;;;;;;;;;14.60;99.90;;;;;;5077922;27;38253;-55
2022/05/11 03:16:26;;;;;;;;;;;14.60;99.90;;;;;;5076748;27;36737;-55
2022/05/11 03:18:53;;;;;;;;;;;14.60;99.90;;;;;;5079122;27;37681;-56
2022/05/11 03:21:22;;;;;;;;;;;14.60;99.90;;;;;;5078420;27;37385;-56
2022/05/11 03:23:49;;;;;;;;;;;14.60;99.90;;;;;;5078247;27;35912;-56
2022/05/11 03:26:17;;;;;;;;;;;14.60;99.90;;;;;;5078269;27;36518;-55
2022/05/11 03:28:44;;;;;;;;;;;14.50;99.90;;;;;;5077670;27;38173;-56
2022/05/11 03:31:11;;;;;;;;;;;14.50;99.90;;;;;;5078950;27;38938;-56
2022/05/11 03:36:23;;;;;;;;;;;14.50;99.90;;;;;;5079061;27;37317;-56
2022/05/11 03:38:50;;;;;;;;;;;14.50;99.90;;;;;;5078151;27;38438;-56
2022/05/11 03:41:18;;;;;;;;;;;14.50;99.90;;;;;;5078862;27;40003;-56
2022/05/11 03:43:45;;;;;;;;;;;14.50;99.90;;;;;;5076229;27;37457;-56
2022/05/11 03:46:12;;;;;;;;;;;14.50;99.90;;;;;;5077398;27;36258;-56
2022/05/11 03:48:39;;;;;;;;;;;14.50;99.90;;;;;;5076121;27;38786;-56
2022/05/11 03:51:06;;;;;;;;;;;14.50;99.90;;;;;;5078246;27;36772;-56
2022/05/11 03:53:37;;;;;;;;;;;14.50;99.90;;;;;;5076578;27;38043;-56
2022/05/11 03:56:04;;;;;;;;;;;14.50;99.90;;;;;;5077379;27;37436;-56
2022/05/11 03:58:31;;;;;;;;;;;14.50;99.90;;;;;;5076470;27;36761;-56
2022/05/11 04:00:58;;;;;;;;;;;14.50;99.90;;;;;;5077064;27;39173;-55
2022/05/11 04:03:28;;;;;;;;;;;14.50;99.90;;;;;;5077967;27;36132;-56
2022/05/11 04:05:55;;;;;;;;;;;14.50;99.90;;;;;;5073900;27;37083;-56
2022/05/11 04:08:22;;;;;;;;;;;14.50;99.90;;;;;;5077026;27;36681;-56
2022/05/11 04:10:51;;;;;;;;;;;14.50;99.90;;;;;;5077251;27;38484;-56
2022/05/11 04:13:18;;;;;;;;;;;14.50;99.90;;;;;;5078093;27;38928;-56
2022/05/11 04:15:48;;;;;;;;;;;14.50;99.90;;;;;;5077345;27;37556;-55
2022/05/11 04:18:15;;;;;;;;;;;14.50;99.90;;;;;;5077307;27;37099;-56
2022/05/11 04:20:42;;;;;;;;;;;14.50;99.90;;;;;;5077340;27;39488;-56
2022/05/11 04:23:09;;;;;;;;;;;14.50;99.90;;;;;;5076861;27;36853;-56
2022/05/11 04:25:36;;;;;;;;;;;14.50;99.90;;;;;;5077986;27;37878;-56
2022/05/11 04:28:07;;;;;;;;;;;14.50;99.90;;;;;;5078600;27;37652;-56
2022/05/11 04:30:34;;;;;;;;;;;14.50;99.90;;;;;;5079665;27;37581;-56
2022/05/11 04:33:02;;;;;;;;;;;14.50;99.90;;;;;;5080770;27;37404;-56
2022/05/11 04:35:30;;;;;;;;;;;14.50;99.90;;;;;;5080488;27;35956;-56
2022/05/11 04:37:57;;;;;;;;;;;14.50;99.90;;;;;;5080996;27;37759;-56
2022/05/11 04:40:24;;;;;;;;;;;14.50;99.90;;;;;;5080054;27;37266;-56
2022/05/11 04:42:52;;;;;;;;;;;14.50;99.90;;;;;;5080957;27;37384;-56
2022/05/11 04:45:20;;;;;;;;;;;14.50;99.90;;;;;;5080049;27;37154;-56
2022/05/11 04:47:47;;;;;;;;;;;14.50;99.90;;;;;;5078375;27;38556;-56
2022/05/11 04:50:15;;;;;;;;;;;14.60;99.90;;;;;;5077148;27;39336;-56
2022/05/11 04:52:42;;;;;;;;;;;14.50;99.90;;;;;;5075761;27;36954;-56
2022/05/11 04:55:10;;;;;;;;;;;14.50;99.90;;;;;;5078186;27;36686;-56
2022/05/11 04:57:37;;;;;;;;;;;14.50;99.90;;;;;;5078355;27;37727;-56
2022/05/11 05:00:06;;;;;;;;;;;14.50;99.90;;;;;;5077958;27;37887;-56
2022/05/11 05:02:35;;;;;;;;;;;14.60;99.90;;;;;;5080357;27;38032;-56
2022/05/11 05:05:05;;;;;;;;;;;14.60;99.90;;;;;;5080901;27;35141;-55
2022/05/11 05:07:34;;;;;;;;;;;14.60;99.90;;;;;;5079947;27;38892;-56
2022/05/11 05:10:01;;;;;;;;;;;14.60;99.90;;;;;;5078221;27;38087;-56
2022/05/11 05:12:28;;;;;;;;;;;14.60;99.90;;;;;;5078702;27;36087;-56
2022/05/11 05:14:55;;;;;;;;;;;14.60;99.90;;;;;;5079045;27;37857;-56
2022/05/11 05:17:22;;;;;;;;;;;14.60;99.90;;;;;;5078716;27;37555;-56
2022/05/11 05:19:51;;;;;;;;;;;14.60;99.90;;;;;;5080181;27;40473;-56
2022/05/11 05:22:18;;;;;;;;;;;14.60;99.90;;;;;;5078043;27;37429;-56
2022/05/11 05:24:45;;;;;;;;;;;14.60;99.90;;;;;;5078927;27;37445;-56
2022/05/11 05:27:13;;;;;;;;;;;14.60;99.90;;;;;;5078550;27;37951;-56
2022/05/11 05:32:25;;;;;;;;;;;14.60;99.90;;;;;;5079678;27;38113;-55
2022/05/11 05:34:53;;;;;;;;;;;14.70;99.90;;;;;;5076841;27;36381;-55
2022/05/11 05:37:20;;;;;;;;;;;14.70;99.90;;;;;;5077944;27;37962;-56
2022/05/11 05:39:47;;;;;;;;;;;14.70;99.90;;;;;;5079484;27;37741;-56
2022/05/11 05:42:18;;;;;;;;;;;14.70;99.90;;;;;;5080464;27;37555;-56
2022/05/11 05:44:45;;;;;;;;;;;14.70;99.90;;;;;;5080105;27;37301;-56
2022/05/11 05:47:13;;;;;;;;;;;14.80;99.90;;;;;;5078131;27;36185;-56
2022/05/11 05:49:42;;;;;;;;;;;14.80;99.90;;;;;;5078723;27;38783;-56
2022/05/11 05:52:15;;;;;;;;;;;14.80;99.90;;;;;;5077484;27;35988;-56
2022/05/11 05:54:42;;;;;;;;;;;14.80;99.90;;;;;;5078510;27;36537;-56
2022/05/11 05:57:09;;;;;;;;;;;14.90;99.90;;;;;;5080307;27;36003;-56
2022/05/11 05:59:36;;;;;;;;;;;14.90;99.90;;;;;;5077591;27;38258;-56
2022/05/11 06:02:04;;;;;;;;;;;14.90;99.90;;;;;;5077561;27;37573;-56
2022/05/11 06:04:31;;;;;;;;;;;15.00;99.90;;;;;;5078286;27;36066;-56
2022/05/11 06:06:58;;;;;;;;;;;15.00;99.90;;;;;;5078435;27;37725;-56
2022/05/11 06:09:26;;;;;;;;;;;15.00;99.90;;;;;;5078355;27;38339;-56
2022/05/11 06:11:53;;;;;;;;;;;15.00;99.90;;;;;;5078580;27;37387;-56
2022/05/11 06:14:20;;;;;;;;;;;15.10;99.90;;;;;;5077000;27;37583;-56
2022/05/11 06:16:47;;;;;;;;;;;15.10;99.90;;;;;;5075291;27;38155;-56
2022/05/11 06:19:15;;;;;;;;;;;15.10;99.90;;;;;;5076345;27;38848;-56
2022/05/11 06:21:42;;;;;;;;;;;15.20;99.90;;;;;;5077083;27;38108;-56
2022/05/11 06:24:09;;;;;;;;;;;15.20;99.90;;;;;;5075708;27;36587;-56
2022/05/11 06:26:38;;;;;;;;;;;15.30;99.90;;;;;;5072941;27;36605;-56
2022/05/11 06:29:05;;;;;;;;;;;15.30;99.90;;;;;;5077635;27;39568;-56
2022/05/11 06:31:32;;;;;;;;;;;15.40;99.90;;;;;;5077635;27;38145;-56
2022/05/11 06:34:00;;;;;;;;;;;15.50;99.90;;;;;;5076507;27;36499;-56
2022/05/11 06:36:27;;;;;;;;;;;15.60;99.90;;;;;;5077979;27;37771;-56
2022/05/11 06:38:54;;;;;;;;;;;15.70;99.90;;;;;;5077627;27;39105;-56
2022/05/11 06:41:23;;;;;;;;;;;15.80;99.90;;;;;;5078944;27;36031;-56
2022/05/11 06:43:52;;;;;;;;;;;15.80;99.90;;;;;;5079052;27;37255;-56
2022/05/11 06:46:19;;;;;;;;;;;15.80;99.90;;;;;;5076812;27;38327;-56
2022/05/11 06:48:46;;;;;;;;;;;15.80;99.90;;;;;;5077937;27;37205;-56
2022/05/11 06:51:14;;;;;;;;;;;15.80;99.90;;;;;;5078275;27;38033;-56
2022/05/11 06:59:24;;;;;;;;;;;15.80;99.90;;;;;;5074539;27;38711;-56
2022/05/11 07:01:51;;;;;;;;;;;15.80;99.90;;;;;;5078359;27;40815;-56
2022/05/11 07:04:20;;;;;;;;;;;15.80;99.90;;;;;;5077902;27;36939;-56
2022/05/11 07:06:48;;;;;;;;;;;15.80;99.90;;;;;;5078110;27;37548;-56
2022/05/11 07:09:15;;;;;;;;;;;15.90;99.90;;;;;;5078120;27;37752;-56
2022/05/11 07:14:30;;;;;;;;;;;15.90;99.90;;;;;;5078073;27;37437;-56
2022/05/11 07:16:57;;;;;;;;;;;16.00;99.90;;;;;;5078538;27;38553;-56
2022/05/11 07:19:25;;;;;;;;;;;16.10;99.90;;;;;;5074565;27;38383;-56
2022/05/11 07:21:52;;;;;;;;;;;16.10;99.90;;;;;;5077939;27;37363;-55
2022/05/11 07:24:22;;;;;;;;;;;16.20;99.90;;;;;;5078154;27;37772;-56
2022/05/11 07:26:49;;;;;;;;;;;16.20;99.90;;;;;;5078012;27;38001;-56
2022/05/11 07:29:16;;;;;;;;;;;16.30;99.90;;;;;;5078153;27;39550;-56
2022/05/11 07:31:46;;;;;;;;;;;16.30;99.90;;;;;;5078002;27;40491;-56
2022/05/11 07:34:15;;;;;;;;;;;16.40;99.90;;;;;;5077649;27;35122;-56
2022/05/11 07:36:42;;;;;;;;;;;16.40;99.90;;;;;;5078086;27;37923;-56
2022/05/11 07:39:10;;;;;;;;;;;16.50;99.90;;;;;;5077661;27;36742;-56
2022/05/11 07:41:37;;;;;;;;;;;16.60;99.90;;;;;;5077862;27;37249;-56
2022/05/11 07:44:04;;;;;;;;;;;16.70;99.90;;;;;;5078036;27;35210;-56
2022/05/11 07:46:34;;;;;;;;;;;16.90;99.90;;;;;;5075903;27;39765;-56
2022/05/11 07:49:03;;;;;;;;;;;17.10;99.80;;;;;;5076647;27;39495;-56
2022/05/11 07:51:30;;;;;;;;;;;17.10;98.80;;;;;;5071173;27;36823;-56
2022/05/11 07:54:00;;;;;;;;;;;17.20;98.50;;;;;;5076493;27;37271;-56
2022/05/11 08:01:56;;;;;;;;;;;17.40;98.10;;;;;;5079253;27;38967;-56
2022/05/11 08:04:26;;;;;;;;;;;17.50;97.20;;;;;;5078809;27;38342;-56
2022/05/11 08:06:53;;;;;;;;;;;17.50;97.50;;;;;;5077405;27;35399;-56
2022/05/11 08:09:21;;;;;;;;;;;17.50;97.40;;;;;;5080408;27;38200;-56
2022/05/11 08:11:52;;;;;;;;;;;17.50;97.40;;;;;;5080974;27;36083;-56
2022/05/11 08:14:19;;;;;;;;;;;17.60;97.20;;;;;;5081379;27;35850;-56
2022/05/11 08:16:51;;;;;;;;;;;17.60;96.90;;;;;;5080679;27;37806;-56
2022/05/11 08:19:19;;;;;;;;;;;17.50;97.10;;;;;;5080756;27;37790;-56
2022/05/11 08:21:48;;;;;;;;;;;17.60;96.50;;;;;;5080794;27;37734;-56
2022/05/11 08:24:15;;;;;;;;;;;17.70;96.80;;;;;;5079881;27;36416;-58
2022/05/11 08:26:42;;;;;;;;;;;17.80;96.70;;;;;;5080403;27;36834;-58
2022/05/11 08:29:10;;;;;;;;;;;17.90;96.10;;;;;;5080521;27;38500;-57
2022/05/11 08:34:22;;;;;;;;;;;18.00;96.20;;;;;;5082064;27;37390;-58
2022/05/11 08:36:50;;;;;;;;;;;18.00;95.90;;;;;;5081069;27;38353;-58
2022/05/11 08:39:17;;;;;;;;;;;18.00;96.10;;;;;;5083054;27;37829;-58
2022/05/11 08:41:47;;;;;;;;;;;18.00;95.70;;;;;;5082280;27;39476;-58
2022/05/11 08:44:15;;;;;;;;;;;18.00;95.90;;;;;;5083202;27;37012;-58
2022/05/11 08:46:45;;;;;;;;;;;18.10;95.90;;;;;;5081249;27;36628;-58
2022/05/11 08:49:17;;;;;;;;;;;18.10;95.80;;;;;;5079933;27;38547;-58
2022/05/11 08:51:47;;;;;;;;;;;18.20;95.40;;;;;;5078370;27;38513;-57
2022/05/11 08:54:17;;;;;;;;;;;18.20;95.30;;;;;;5078651;27;36483;-57
2022/05/11 08:56:46;;;;;;;;;;;18.10;95.60;;;;;;5078628;27;37521;-58
2022/05/11 08:59:20;;;;;;;;;;;18.20;96.40;;;;;;5080718;27;36897;-58
2022/05/11 09:01:50;;;;;;;;;;;18.20;95.60;;;;;;5081779;27;37177;-58
2022/05/11 09:04:22;;;;;;;;;;;18.20;94.80;;;;;;5079248;27;35005;-58
2022/05/11 09:06:50;;;;;;;;;;;18.10;94.70;;;;;;5081352;27;38257;-56
2022/05/11 09:09:19;;;;;;;;;;;18.20;94.20;;;;;;5080588;27;39931;-56
2022/05/11 09:11:49;;;;;;;;;;;18.10;94.70;;;;;;5079622;27;38709;-56
2022/05/11 09:14:19;;;;;;;;;;;18.10;94.60;;;;;;5080957;27;36598;-56
2022/05/11 09:16:47;;;;;;;;;;;18.10;94.50;;;;;;5078556;27;39343;-56
2022/05/11 09:19:17;;;;;;;;;;;18.20;94.60;;;;;;5078881;27;38056;-56
2022/05/11 09:21:49;;;;;;;;;;;18.30;95.30;;;;;;5079093;27;36992;-55
2022/05/11 09:24:26;;;;;;;;;;;18.50;93.80;;;;;;5077949;27;35663;-56
2022/05/11 09:27:01;;;;;;;;;;;18.80;94.60;;;;;;5077663;27;37959;-56
2022/05/11 09:29:32;;;;;;;;;;;18.90;93.40;;;;;;5078997;27;37521;-56
2022/05/11 09:32:19;;;;;;;;;;;19.20;93.40;;;;;;5078701;27;37387;-56
2022/05/11 09:34:46;;;;;;;;;;;19.50;92.70;;;;;;5077582;27;36450;-56
2022/05/11 09:37:24;;;;;;;;;;;19.50;91.60;;;;;;5077977;27;38168;-56
2022/05/11 09:39:54;;;;;;;;;;;19.40;90.50;;;;;;5078735;27;38068;-56
2022/05/11 09:42:26;;;;;;;;;;;19.30;90.80;;;;;;5079501;27;36688;-56
2022/05/11 09:44:54;;;;;;;;;;;19.20;92.10;;;;;;5078769;27;34630;-56
2022/05/11 09:47:28;;;;;;;;;;;19.20;91.70;;;;;;5079039;27;37233;-56
2022/05/11 09:49:56;;;;;;;;;;;19.30;91.60;;;;;;5077872;27;37816;-56
2022/05/11 09:52:31;;;;;;;;;;;19.30;90.70;;;;;;5078922;27;38318;-56
2022/05/11 09:55:01;;;;;;;;;;;19.30;90.40;;;;;;5078246;27;36688;-56
2022/05/11 09:57:29;;;;;;;;;;;19.60;91.30;;;;;;5078441;27;36463;-56
2022/05/11 10:00:16;;;;;;;;;;;19.90;90.20;;;;;;5078103;27;38740;-56
2022/05/11 10:02:44;;;;;;;;;;;20.00;89.30;;;;;;5078891;27;37169;-56
2022/05/11 10:05:13;;;;;;;;;;;19.90;86.00;;;;;;5078448;27;35471;-56
2022/05/11 10:07:44;;;;;;;;;;;19.80;86.50;;;;;;5079377;27;38059;-56
2022/05/11 10:10:21;;;;;;;;;;;19.80;85.10;;;;;;5078458;27;38309;-56
2022/05/11 10:12:49;;;;;;;;;;;19.70;86.00;;;;;;5079078;27;36046;-56
2022/05/11 10:23:44;;;;;;;;;;;19.10;88.20;;;;;;5078851;27;37318;-56
2022/05/11 10:26:16;;;;;;;;;;;19.00;90.10;;;;;;5076452;27;37081;-56
2022/05/11 10:28:49;;;;;;;;;;;19.10;91.00;;;;;;5078475;27;37561;-56
2022/05/11 10:31:20;;;;;;;;;;;19.10;90.10;;;;;;5076457;27;40340;-56
2022/05/11 10:33:58;;;;;;;;;;;19.10;87.90;;;;;;5077109;27;36835;-56
2022/05/11 10:36:29;;;;;;;;;;;19.20;88.80;;;;;;5075850;27;36177;-56
2022/05/11 10:39:03;;;;;;;;;;;19.40;90.40;;;;;;5076166;27;36459;-56
2022/05/11 10:41:34;;;;;;;;;;;19.70;88.30;;;;;;5078163;27;37856;-56
2022/05/11 10:44:05;;;;;;;;;;;19.90;87.30;;;;;;5077552;27;38483;-56
2022/05/11 10:46:36;;;;;;;;;;;20.20;86.10;;;;;;5075572;27;35639;-56
2022/05/11 10:49:09;;;;;;;;;;;20.50;87.20;;;;;;5074577;27;37557;-56
2022/05/11 10:51:41;;;;;;;;;;;20.80;85.10;;;;;;5075934;27;36643;-56
2022/05/11 10:54:14;;;;;;;;;;;20.90;81.20;;;;;;5076019;27;38551;-56
2022/05/11 10:56:47;;;;;;;;;;;21.00;80.30;;;;;;5076082;27;36193;-56
2022/05/11 10:59:28;;;;;;;;;;;21.10;80.20;;;;;;5078295;27;38227;-56
2022/05/11 11:02:05;;;;;;;;;;;21.00;77.70;;;;;;5073770;27;38671;-56
2022/05/11 11:04:46;;;;;;;;;;;20.90;76.90;;;;;;5077030;27;37174;-56
2022/05/11 11:07:17;;;;;;;;;;;21.10;80.20;;;;;;5079736;27;37563;-56
2022/05/11 11:09:53;;;;;;;;;;;21.10;79.40;;;;;;5077912;27;36791;-56
2022/05/11 11:12:30;;;;;;;;;;;21.20;78.90;;;;;;5078977;27;39673;-56
2022/05/11 11:14:59;;;;;;;;;;;21.10;77.80;;;;;;5078921;27;39379;-56
2022/05/11 11:17:27;;;;;;;;;;;21.00;77.20;;;;;;5077115;27;36713;-56
2022/05/11 11:19:56;;;;;;;;;;;21.00;80.80;;;;;;5077633;27;37807;-56
2022/05/11 11:22:25;;;;;;;;;;;21.20;79.60;;;;;;5077478;27;37743;-56
2022/05/11 11:25:07;;;;;;;;;;;21.20;79.60;;;;;;5077566;27;36709;-56
2022/05/11 11:27:49;;;;;;;;;;;21.10;76.90;;;;;;5064064;27;36511;-56
2022/05/11 11:30:22;;;;;;;;;;;21.10;81.30;;;;;;5077924;27;40023;-56
2022/05/11 11:33:03;;;;;;;;;;;21.00;77.60;;;;;;5078061;27;36922;-56
2022/05/11 11:35:35;;;;;;;;;;;20.80;76.90;;;;;;5078026;27;37877;-58
2022/05/11 11:38:02;;;;;;;;;;;20.60;79.60;;;;;;5078113;27;37285;-58
2022/05/11 11:40:31;;;;;;;;;;;20.50;80.00;;;;;;5078708;27;36405;-56
2022/05/11 11:43:38;;;;;;;;;;;20.20;78.60;;;;;;5078650;27;36718;-56
2022/05/11 11:46:09;;;;;;;;;;;20.10;81.20;;;;;;5078226;27;37753;-56
2022/05/11 11:48:41;;;;;;;;;;;20.00;84.30;;;;;;5077995;27;36535;-56
2022/05/11 11:51:12;;;;;;;;;;;20.10;84.10;;;;;;5078953;27;37908;-56
2022/05/11 11:53:42;;;;;;;;;;;20.00;82.20;;;;;;5077570;27;38243;-56
2022/05/11 11:56:28;;;;;;;;;;;20.10;81.10;;;;;;5077288;27;37654;-56
2022/05/11 11:59:03;;;;;;;;;;;19.90;82.00;;;;;;5077454;27;36600;-58
2022/05/11 12:01:31;;;;;;;;;;;19.80;82.00;;;;;;5077796;27;40407;-58
2022/05/11 12:04:01;;;;;;;;;;;19.70;83.10;;;;;;5078034;27;38791;-58
2022/05/11 12:15:04;;;;;;;;;;;19.80;79.30;;;;;;5078586;27;39642;-58
2022/05/11 12:17:33;;;;;;;;;;;19.80;79.60;;;;;;5075685;27;35943;-56
2022/05/11 12:20:05;;;;;;;;;;;19.80;78.60;;;;;;5074458;27;35239;-57
2022/05/11 12:22:33;;;;;;;;;;;19.70;76.80;;;;;;5076960;27;38956;-56
2022/05/11 12:25:02;;;;;;;;;;;19.70;75.60;;;;;;5075891;27;37753;-56
2022/05/11 12:27:30;;;;;;;;;;;19.70;76.70;;;;;;5077494;27;38700;-56
2022/05/11 12:29:59;;;;;;;;;;;19.80;73.00;;;;;;5076852;27;37855;-57
2022/05/11 12:32:28;;;;;;;;;;;19.90;74.70;;;;;;5077903;27;37710;-56
2022/05/11 12:34:56;;;;;;;;;;;19.90;73.70;;;;;;5076180;27;37738;-56
2022/05/11 12:37:36;;;;;;;;;;;20.00;74.30;;;;;;5077430;27;38274;-56
2022/05/11 12:40:06;;;;;;;;;;;20.10;73.50;;;;;;5077130;27;36928;-56
2022/05/11 12:42:36;;;;;;;;;;;20.20;72.90;;;;;;5077335;27;37784;-56
2022/05/11 12:45:04;;;;;;;;;;;20.20;71.10;;;;;;5076458;27;40172;-56
2022/05/11 12:47:31;;;;;;;;;;;20.20;72.00;;;;;;5074353;27;38502;-52
2022/05/11 12:49:59;;;;;;;;;;;20.20;71.40;;;;;;5080156;27;37069;-56
2022/05/11 12:52:26;;;;;;;;;;;20.30;71.40;;;;;;5080833;27;38523;-56
2022/05/11 12:55:00;;;;;;;;;;;20.30;70.10;;;;;;5080506;27;36636;-56
2022/05/11 12:57:34;;;;;;;;;;;20.30;68.70;;;;;;5081012;27;36987;-56
2022/05/11 13:00:02;;;;;;;;;;;20.30;68.30;;;;;;5079470;27;36253;-56
2022/05/11 13:02:33;;;;;;;;;;;20.30;67.40;;;;;;5080602;27;37780;-56
2022/05/11 13:05:01;;;;;;;;;;;20.30;66.80;;;;;;5079896;27;38632;-56
2022/05/11 13:07:29;;;;;;;;;;;20.30;63.30;;;;;;5080139;27;36794;-56
2022/05/11 13:09:58;;;;;;;;;;;20.30;65.90;;;;;;5079596;27;35966;-56
2022/05/11 13:12:27;;;;;;;;;;;20.30;69.20;;;;;;5077909;27;37838;-56
2022/05/11 13:14:55;;;;;;;;;;;20.40;68.40;;;;;;5079959;27;39549;-57
2022/05/11 13:17:24;;;;;;;;;;;20.40;69.20;;;;;;5079315;27;36574;-56
2022/05/11 13:19:55;;;;;;;;;;;20.40;67.70;;;;;;5078479;27;36304;-56
2022/05/11 13:22:24;;;;;;;;;;;20.30;67.60;;;;;;5080107;27;36400;-56
2022/05/11 13:24:56;;;;;;;;;;;20.10;68.60;;;;;;5079731;27;39270;-56
2022/05/11 13:27:32;;;;;;;;;;;20.10;70.80;;;;;;5078316;27;37763;-56
2022/05/11 13:30:03;;;;;;;;;;;20.00;71.90;;;;;;5078384;27;36473;-56
2022/05/11 13:32:36;;;;;;;;;;;20.00;71.50;;;;;;5079746;27;41696;-56
2022/05/11 13:35:21;;;;;;;;;;;19.90;72.20;;;;;;5075904;27;36610;-56
2022/05/11 13:37:55;;;;;;;;;;;19.80;72.60;;;;;;5078260;27;37491;-56
2022/05/11 13:40:26;;;;;;;;;;;19.70;74.10;;;;;;5079030;27;36542;-56
2022/05/11 13:42:55;;;;;;;;;;;19.60;74.80;;;;;;5078987;27;37734;-57
2022/05/11 13:45:22;;;;;;;;;;;19.50;77.20;;;;;;5079749;27;37731;-56
2022/05/11 13:50:38;;;;;;;;;;;19.30;75.90;;;;;;5080035;27;34465;-56
2022/05/11 13:53:07;;;;;;;;;;;19.20;76.40;;;;;;5080803;27;37435;-56
2022/05/11 13:55:36;;;;;;;;;;;19.10;76.60;;;;;;5080073;27;37676;-56
2022/05/11 13:58:24;;;;;;;;;;;19.10;78.90;;;;;;5079796;27;37462;-56
2022/05/11 14:00:54;;;;;;;;;;;19.10;80.30;;;;;;5077170;27;36581;-57
2022/05/11 14:03:23;;;;;;;;;;;19.10;81.30;;;;;;5079406;27;38691;-56
2022/05/11 14:05:50;;;;;;;;;;;19.00;80.70;;;;;;5077017;27;38107;-56
2022/05/11 14:08:19;;;;;;;;;;;19.00;80.30;;;;;;5079148;27;38684;-56
2022/05/11 14:10:46;;;;;;;;;;;18.90;81.00;;;;;;5079110;27;36056;-56
2022/05/11 14:13:13;;;;;;;;;;;19.00;82.20;;;;;;5077535;27;38770;-56
2022/05/11 14:15:41;;;;;;;;;;;19.00;82.90;;;;;;5078909;27;37766;-56
2022/05/11 14:18:11;;;;;;;;;;;19.00;83.00;;;;;;5077714;27;35936;-56
2022/05/11 14:20:38;;;;;;;;;;;19.00;83.10;;;;;;5077534;27;36114;-56
2022/05/11 14:23:06;;;;;;;;;;;19.10;82.80;;;;;;5078422;27;37804;-57
2022/05/11 14:25:33;;;;;;;;;;;19.10;82.80;;;;;;5078263;27;38113;-56
2022/05/11 14:28:01;;;;;;;;;;;19.20;83.30;;;;;;5078838;27;37879;-56
2022/05/11 14:30:28;;;;;;;;;;;19.20;83.50;;;;;;5078267;27;36541;-56
2022/05/11 14:32:56;;;;;;;;;;;19.20;84.50;;;;;;5078744;27;39366;-56
2022/05/11 14:35:26;;;;;;;;;;;19.20;83.00;;;;;;5077776;27;36834;-56
2022/05/11 14:37:53;;;;;;;;;;;19.20;81.30;;;;;;5077778;27;38731;-56
2022/05/11 14:40:21;;;;;;;;;;;19.10;77.60;;;;;;5078479;27;34988;-56
2022/05/11 14:42:48;;;;;;;;;;;19.10;76.50;;;;;;5079454;27;37421;-56
2022/05/11 14:45:16;;;;;;;;;;;19.10;75.60;;;;;;5077892;27;39708;-56
2022/05/11 14:47:43;;;;;;;;;;;19.10;76.10;;;;;;5077412;27;36004;-56
2022/05/11 14:50:17;;;;;;;;;;;19.10;77.70;;;;;;5077665;27;35818;-56
2022/05/11 14:52:44;;;;;;;;;;;19.00;74.90;;;;;;5077061;27;38287;-56
2022/05/11 14:55:11;;;;;;;;;;;19.00;72.90;;;;;;5075639;27;36892;-56
2022/05/11 15:03:11;;;;;;;;;;;18.80;72.20;;;;;;5076898;27;39605;-56
2022/05/11 15:05:41;;;;;;;;;;;18.70;72.10;;;;;;5076005;27;36641;-56
2022/05/11 15:08:09;;;;;;;;;;;18.60;71.40;;;;;;5076507;27;37259;-56
2022/05/11 15:10:36;;;;;;;;;;;18.60;72.10;;;;;;5076156;27;36416;-56
2022/05/11 15:15:48;;;;;;;;;;;18.40;71.80;;;;;;5075694;27;38746;-56
2022/05/11 15:18:16;;;;;;;;;;;18.40;73.80;;;;;;5077370;27;38582;-56
2022/05/11 15:20:46;;;;;;;;;;;18.40;72.10;;;;;;5075576;27;38381;-56
2022/05/11 15:23:14;;;;;;;;;;;18.40;71.10;;;;;;5077746;27;38943;-56
2022/05/11 15:25:41;;;;;;;;;;;18.40;70.40;;;;;;5078375;27;38396;-57